WMSA/SZB METAR and TAF weather

Enter ICAO airport designator
Station Type Date Time Source
WMSA METAR 2021/09/24 00:00 UTC NOAA

WMSA 240000Z AUTO VRB04KT //// // ////// 27/22 Q1011


Station Type Date Time Source
WMSA Decoded METAR 2021/09/24 00:00 UTC NOAA

Subang/Sultan Abdul Aziz Shah Airport, Malaysia (WMSA) 03-07N 101-32E
Sep 23, 2021 - 08:00 PM EDT / 2021.09.24 0000 UTC
Wind: Variable at 5 MPH (4 KT):0
Temperature: 80 F (27 C)
Dew Point: 71 F (22 C)
Relative Humidity: 74%
Pressure (altimeter): 29.85 in. Hg (1011 hPa)
ob: WMSA 240000Z AUTO VRB04KT //// // ////// 27/22 Q1011
cycle: 0

Station Type Date Time Source
WMSA TAF 2021/09/23 18:26 UTC NOAA

TAF WMSA 231700Z 2318/2418 15006KT 9000 FEW017CB
TEMPO 2318/2323 4000 TSRA FEW010 FEW016CB SCT020

Example: see airport list